Accueil
METAR-TAF:

METAR-TAF

Aéroports :

Base aérienne de Batajnica

Batajnica, Serbie

latitude: 44-56-07N, longitude: 020-15-27E, altitude: 86 m

Observation

Le bulletin a été fait il y a 25 minutes, à 15:00 UTC
Vent 4 kt de nord
Température 10°C
Humidité 66%
Pression 1020 hPa
Visibilité: 6000 m

METAR: LYBT 261500Z 01004KT 6000 NSC 10/04 Q1020 NOSIG

Heure: 16:25 (15:25 UTC)

Prévision

Le bulletin a été fait il y a 4 heures et 25 minutes, à 11:00 UTC
Prévision valable du 26 à 12 UTC au 27 à 12 UTC
Vent 4 kt de est
Visibilité: 6000 m
Evoluant progressivement
du 26 à 21 UTC au 26 à 23 UTC
Visibilité: 5000 m
Nuages fragmentés à une hauteur de 1500 ft
Nuages fragmentés à une hauteur de 3000 ft
pluie faible

TAF: LYBT 261100Z 2612/2712 10004KT 6000 NSC TX12/2613Z TN02/2706Z BECMG 2621/2623 5000 -RA BKN015 BKN030

Observations et prévisions météorologiques de plus de 4000 aéroports (messages METAR et TAF).

Les stations disponibles sont représentées par des disques jaunes et rouges sur la carte.

Passer la souris dessus pour voir le nom de la station.

Cliquer dessus pour voir les observations et prévisions météorologiques.

Pour changer de carte: cliquez sur les boutons verts avec une croix noire pour zoomer, sur le bouton vert avec un tiret pour effectuer un zoom arrière, ou sur les flèches vertes pour les cartes adjacentes.


METAR-TAF: